KUYF

Details ICAO KUYF
Name MADISON CO
Region United States
Timezone America/New_York (UTC-4.0)
Plans Departing 2
Arriving 4
Stats Elevation 1,081 ft / 329 m (AMSL)
Location 39.932713° -83.461993°
Runways 1
Magnetic Variation 6.791° W
Sunrise 2018-05-26 10:11:49 UTC / 2018-05-26 06:11:49 Local
Sunset 2018-05-27 00:52:53 UTC / 2018-05-26 20:52:53 Local
Advertisement - Login to hide

Runways

ID Width Length Bearing (true) Bearing (mag) Surface Threshold Offset Overrun Length
09 75 ft / 23 m 3,992 ft / 1,217 m 86.60° 93.39° Asphalt 0 ft / 0 m 0 ft / 0 m
27 75 ft / 23 m 3,992 ft / 1,217 m 266.61° 273.40° Asphalt 0 ft / 0 m 0 ft / 0 m

Map

Weather


0- 5 10 15 20 25 30 35+ Temperature / ° C

Clouds and Precipitation
Forecast for 2018-05-26 12:00 UTC. Updated 3 hours ago

Ground ~20,000 ft ~40,000 ft Winds

METAR

KUYF 261415Z AUTO 24008KT 10SM OVC110 25/18 A2989 RMK AO2

TAF

Not found

Frequencies

Unicom 123.00 MHz CTAF/UNICOM
Departure 126.50 MHz DAYTON DEP
Approach 118.85 MHz DAYTON APP
Warning: Do not use this data for real-world aviation or navigation. No guarantee of current accuracy is given.